Time;durP1;ratioP1;P1;durP2;ratioP2;P2;SDS_P1;SDS_P2;PMS_P1;PMS_P2;Temp;Humidity;BMP_temperature;BMP_pressure;BME280_temperature;BME280_humidity;BME280_pressure;Samples;Min_cycle;Max_cycle;Signal;HPM_P1;HPM_P2
2021/06/28 00:00:51;;;;;;;4.63;2.10;;;24.90;58.10;;;;;;3151205;28;20507;-88
2021/06/28 00:02:23;;;;;;;4.07;2.25;;;24.90;58.30;;;;;;3151514;28;20461;-87
2021/06/28 00:03:53;;;;;;;3.60;2.08;;;24.80;58.50;;;;;;3161898;28;20047;-87
2021/06/28 00:05:25;;;;;;;2.85;2.20;;;24.80;58.70;;;;;;3163684;28;20051;-87
2021/06/28 00:06:57;;;;;;;2.25;2.08;;;24.70;58.90;;;;;;3163871;28;20545;-87
2021/06/28 00:08:27;;;;;;;2.40;2.13;;;24.70;59.00;;;;;;3164227;28;20048;-87
2021/06/28 00:09:59;;;;;;;3.17;2.20;;;24.60;59.20;;;;;;3163436;28;20048;-87
2021/06/28 00:11:32;;;;;;;4.05;2.33;;;24.50;59.40;;;;;;3164368;28;20048;-87
2021/06/28 00:13:03;;;;;;;;;;;24.50;59.40;;;;;;3164722;28;20047;-87
2021/06/28 00:14:34;;;;;;;2.67;2.25;;;24.50;59.40;;;;;;3164611;28;20291;-87
2021/06/28 00:16:06;;;;;;;2.67;2.13;;;24.50;59.60;;;;;;3164322;28;20052;-87
2021/06/28 00:17:36;;;;;;;3.35;2.40;;;24.50;59.60;;;;;;3164273;28;20052;-87
2021/06/28 00:19:08;;;;;;;5.57;2.40;;;24.50;59.60;;;;;;3164306;28;20040;-87
2021/06/28 00:20:40;;;;;;;2.65;2.30;;;24.40;59.80;;;;;;3164437;28;20049;-87
2021/06/28 00:22:11;;;;;;;3.25;2.50;;;24.40;59.80;;;;;;3164781;28;20048;-87
2021/06/28 00:23:43;;;;;;;3.00;2.50;;;24.40;59.80;;;;;;3163914;28;20052;-87
2021/06/28 00:25:14;;;;;;;4.53;2.53;;;24.40;59.70;;;;;;3163532;28;20055;-88
2021/06/28 00:26:47;;;;;;;4.22;2.33;;;24.40;59.80;;;;;;3162988;28;20067;-87
2021/06/28 00:28:21;;;;;;;;;;;24.40;60.10;;;;;;3163710;28;20047;-87
2021/06/28 00:29:52;;;;;;;;;;;24.30;59.80;;;;;;3165001;28;19964;-86
2021/06/28 00:31:24;;;;;;;4.72;2.15;;;24.30;60.60;;;;;;3164667;28;19920;-87
2021/06/28 00:32:56;;;;;;;4.05;2.20;;;24.30;59.90;;;;;;3164018;28;20076;-87
2021/06/28 00:34:29;;;;;;;3.70;2.15;;;24.30;60.10;;;;;;3162275;28;20126;-87
2021/06/28 00:36:00;;;;;;;4.18;2.15;;;24.30;60.10;;;;;;3163974;28;20070;-87
2021/06/28 00:37:32;;;;;;;3.92;2.35;;;24.30;60.20;;;;;;3163060;28;20072;-87
2021/06/28 00:39:04;;;;;;;3.88;2.30;;;24.30;60.10;;;;;;3164336;28;20055;-87
2021/06/28 00:40:36;;;;;;;7.65;2.40;;;24.30;60.20;;;;;;3165838;28;20048;-87
2021/06/28 00:42:08;;;;;;;3.00;2.10;;;24.30;60.20;;;;;;3166156;28;20048;-87
2021/06/28 00:43:40;;;;;;;3.30;2.20;;;24.30;60.10;;;;;;3165436;28;20070;-88
2021/06/28 00:45:15;;;;;;;5.80;2.45;;;24.30;60.30;;;;;;3166525;28;20048;-88
2021/06/28 00:46:47;;;;;;;6.15;2.10;;;24.30;60.30;;;;;;3166102;28;20075;-87
2021/06/28 00:48:19;;;;;;;2.55;2.35;;;24.20;60.30;;;;;;3165383;28;20055;-88
2021/06/28 00:49:49;;;;;;;9.18;2.70;;;24.20;60.50;;;;;;3165122;28;20072;-87
2021/06/28 00:51:21;;;;;;;26.13;2.40;;;24.20;60.40;;;;;;3163912;28;20048;-88
2021/06/28 00:52:54;;;;;;;13.15;2.28;;;24.20;60.40;;;;;;3166137;28;20056;-87
2021/06/28 00:54:26;;;;;;;7.25;2.20;;;24.20;60.50;;;;;;3165758;28;20081;-87
2021/06/28 00:56:09;;;;;;;13.60;2.80;;;24.20;60.60;;;;;;3164705;28;20048;-89
2021/06/28 00:57:42;;;;;;;7.20;2.60;;;24.10;60.60;;;;;;3167012;28;20058;-87
2021/06/28 00:59:13;;;;;;;6.78;2.70;;;24.10;60.50;;;;;;3165351;28;20048;-88
2021/06/28 01:00:45;;;;;;;6.25;2.40;;;24.10;60.60;;;;;;3164773;28;20041;-87
2021/06/28 01:02:17;;;;;;;10.40;2.65;;;24.10;60.70;;;;;;3166798;28;20479;-87
2021/06/28 01:03:48;;;;;;;10.43;2.90;;;24.10;60.70;;;;;;3167562;28;20043;-87
2021/06/28 01:05:20;;;;;;;6.60;2.35;;;24.00;60.80;;;;;;3167459;28;20055;-88
2021/06/28 01:06:52;;;;;;;3.42;2.65;;;24.00;60.80;;;;;;3166830;28;20039;-87
2021/06/28 01:08:23;;;;;;;12.23;2.80;;;24.00;61.10;;;;;;3165545;28;20044;-87
2021/06/28 01:09:55;;;;;;;5.70;2.40;;;24.00;61.00;;;;;;3168227;28;20056;-87
2021/06/28 01:11:27;;;;;;;3.10;2.40;;;23.90;60.90;;;;;;3167471;28;20048;-87
2021/06/28 01:12:59;;;;;;;3.78;2.70;;;24.00;61.00;;;;;;3167433;28;20106;-87
2021/06/28 01:14:31;;;;;;;3.00;2.38;;;23.90;61.10;;;;;;3167870;28;20059;-87
2021/06/28 01:16:03;;;;;;;3.35;2.22;;;23.90;61.30;;;;;;3166694;28;20060;-87
2021/06/28 01:17:34;;;;;;;7.88;2.65;;;23.80;61.40;;;;;;3167308;28;20055;-86
2021/06/28 01:19:05;;;;;;;3.47;2.22;;;23.80;61.30;;;;;;3166828;28;20040;-87
2021/06/28 01:20:37;;;;;;;4.53;2.40;;;23.80;61.40;;;;;;3167617;28;20055;-87
2021/06/28 01:22:08;;;;;;;2.50;2.30;;;23.80;61.50;;;;;;3166978;28;20044;-87
2021/06/28 01:23:41;;;;;;;4.78;2.35;;;23.80;61.60;;;;;;3166192;28;20044;-87
2021/06/28 01:25:12;;;;;;;4.93;2.28;;;23.80;61.80;;;;;;3165349;28;20040;-87
2021/06/28 01:26:44;;;;;;;2.83;2.28;;;23.70;61.90;;;;;;3164682;28;20059;-87
2021/06/28 01:28:15;;;;;;;3.45;2.35;;;23.70;61.80;;;;;;3164679;28;20051;-87
2021/06/28 01:29:46;;;;;;;4.90;2.55;;;23.70;61.80;;;;;;3164802;28;20113;-87
2021/06/28 01:31:18;;;;;;;4.13;2.42;;;23.70;61.80;;;;;;3164253;28;20099;-87
2021/06/28 01:32:49;;;;;;;3.22;2.50;;;23.70;62.00;;;;;;3164648;28;20055;-88
2021/06/28 01:34:20;;;;;;;2.80;2.60;;;23.60;61.80;;;;;;3164520;28;20418;-88
2021/06/28 01:35:52;;;;;;;4.15;2.65;;;23.60;62.00;;;;;;3164507;28;20051;-87
2021/06/28 01:37:23;;;;;;;3.00;2.60;;;23.60;61.90;;;;;;3164412;28;20052;-88
2021/06/28 01:38:56;;;;;;;3.67;2.55;;;23.60;62.10;;;;;;3164502;28;20036;-88
2021/06/28 01:40:28;;;;;;;;;;;23.60;62.10;;;;;;3164977;28;20047;-88
2021/06/28 01:41:59;;;;;;;2.92;2.53;;;23.60;62.00;;;;;;3164386;28;19920;-88
2021/06/28 01:43:32;;;;;;;3.53;2.75;;;23.60;62.30;;;;;;3164779;28;20071;-89
2021/06/28 01:45:04;;;;;;;4.20;2.50;;;23.50;62.30;;;;;;3163807;28;20055;-87
2021/06/28 01:46:35;;;;;;;3.50;2.40;;;23.50;62.30;;;;;;3164063;28;20050;-87
2021/06/28 01:48:07;;;;;;;3.58;2.38;;;23.50;62.30;;;;;;3164239;28;20460;-87
2021/06/28 01:49:38;;;;;;;2.90;2.63;;;23.50;62.30;;;;;;3164059;28;20048;-87
2021/06/28 01:51:10;;;;;;;4.60;2.75;;;23.50;62.30;;;;;;3163829;28;20044;-87
2021/06/28 01:52:41;;;;;;;2.70;2.45;;;23.50;62.30;;;;;;3164495;28;20047;-87
2021/06/28 01:54:17;;;;;;;3.85;2.83;;;23.50;62.50;;;;;;3164289;28;20044;-87
2021/06/28 01:55:49;;;;;;;5.13;2.67;;;23.50;63.00;;;;;;3164841;28;20097;-87
2021/06/28 01:57:20;;;;;;;3.60;2.80;;;23.50;62.30;;;;;;3164719;28;20525;-87
2021/06/28 01:58:52;;;;;;;2.95;2.63;;;23.50;62.30;;;;;;3165005;28;20048;-88
2021/06/28 02:00:24;;;;;;;5.53;2.63;;;23.50;62.50;;;;;;3165166;28;20086;-87
2021/06/28 02:01:55;;;;;;;3.22;2.63;;;23.50;62.80;;;;;;3165344;28;20044;-87
2021/06/28 02:03:27;;;;;;;5.53;2.80;;;23.40;63.40;;;;;;3165319;28;20059;-88
2021/06/28 02:04:58;;;;;;;4.50;2.60;;;23.50;62.50;;;;;;3163972;28;20052;-87
2021/06/28 02:06:30;;;;;;;3.67;3.05;;;23.50;63.90;;;;;;3163911;28;20072;-88
2021/06/28 02:08:01;;;;;;;3.40;2.63;;;23.50;63.00;;;;;;3163441;28;20070;-88
2021/06/28 02:09:34;;;;;;;4.68;2.97;;;23.50;63.20;;;;;;3162792;28;20040;-88
2021/06/28 02:11:07;;;;;;;4.65;3.03;;;23.50;63.50;;;;;;3163373;28;20044;-88
2021/06/28 02:12:38;;;;;;;4.18;2.78;;;23.50;63.30;;;;;;3162350;28;20079;-89
2021/06/28 02:14:10;;;;;;;9.48;3.58;;;23.50;63.20;;;;;;3163842;28;20522;-87
2021/06/28 02:15:41;;;;;;;5.00;2.47;;;23.50;63.60;;;;;;3164187;28;20052;-88
2021/06/28 02:17:13;;;;;;;5.68;2.83;;;23.50;63.80;;;;;;3162703;28;20048;-88
2021/06/28 02:18:44;;;;;;;4.57;2.80;;;23.50;63.70;;;;;;3162351;28;20055;-88
2021/06/28 02:20:15;;;;;;;4.38;2.95;;;23.50;63.70;;;;;;3192240;22;20047;-80
2021/06/28 02:21:47;;;;;;;3.58;2.85;;;23.50;63.70;;;;;;3173768;28;20040;-80
2021/06/28 02:23:29;;;;;;;6.53;2.97;;;23.50;63.70;;;;;;3173975;28;20556;-79
2021/06/28 02:25:02;;;;;;;9.18;3.00;;;23.50;63.60;;;;;;3171411;28;20055;-79
2021/06/28 02:26:32;;;;;;;3.17;2.85;;;23.50;63.80;;;;;;3173172;28;20048;-79
2021/06/28 02:28:04;;;;;;;4.20;2.50;;;23.50;63.70;;;;;;3174036;28;20573;-80
2021/06/28 02:29:36;;;;;;;4.72;2.90;;;23.50;63.70;;;;;;3173901;28;20090;-80
2021/06/28 02:31:08;;;;;;;4.70;2.92;;;23.50;63.60;;;;;;3173869;28;20051;-80
2021/06/28 02:32:39;;;;;;;6.13;3.20;;;23.50;63.70;;;;;;3172583;28;20047;-80
2021/06/28 02:34:11;;;;;;;4.13;2.75;;;23.50;63.70;;;;;;3172607;28;20052;-79
2021/06/28 02:35:43;;;;;;;3.30;2.60;;;23.50;63.60;;;;;;3172738;28;20048;-80
2021/06/28 02:37:14;;;;;;;3.30;3.00;;;23.50;63.60;;;;;;3173146;28;20040;-79
2021/06/28 02:38:46;;;;;;;3.35;2.60;;;23.50;63.70;;;;;;3163602;28;20051;-81
2021/06/28 02:40:19;;;;;;;5.00;3.00;;;23.50;63.60;;;;;;3159904;28;20045;-79
2021/06/28 02:41:51;;;;;;;3.65;3.30;;;23.50;63.60;;;;;;3161596;28;20063;-81
2021/06/28 02:43:21;;;;;;;4.05;3.05;;;23.50;63.60;;;;;;3161802;28;20058;-81
2021/06/28 02:44:53;;;;;;;7.18;3.47;;;23.50;63.60;;;;;;3162780;28;20067;-81
2021/06/28 02:46:25;;;;;;;3.67;2.85;;;23.50;63.60;;;;;;3161945;28;20048;-82
2021/06/28 02:47:56;;;;;;;4.00;2.95;;;23.50;63.60;;;;;;3162110;28;20056;-80
2021/06/28 02:49:28;;;;;;;7.07;2.75;;;23.50;63.60;;;;;;3161505;28;20048;-80
2021/06/28 02:50:59;;;;;;;5.43;3.00;;;23.50;63.60;;;;;;3161398;28;20086;-80
2021/06/28 02:52:30;;;;;;;5.68;3.38;;;23.50;63.60;;;;;;3161808;28;20112;-79
2021/06/28 02:54:02;;;;;;;8.38;3.45;;;23.50;63.50;;;;;;3159605;28;20048;-79
2021/06/28 02:55:34;;;;;;;6.53;3.05;;;23.40;63.90;;;;;;3170900;28;20048;-80
2021/06/28 02:57:06;;;;;;;3.60;3.10;;;23.40;63.80;;;;;;3171548;28;20047;-80
2021/06/28 02:58:37;;;;;;;5.07;3.38;;;23.40;63.80;;;;;;3172816;28;20054;-81
2021/06/28 03:00:11;;;;;;;5.10;3.20;;;23.40;63.80;;;;;;3173252;28;20108;-80
2021/06/28 03:01:43;;;;;;;4.78;2.95;;;23.50;63.80;;;;;;3173229;28;20048;-81
2021/06/28 03:03:16;;;;;;;16.25;3.75;;;23.40;63.90;;;;;;3173404;28;20040;-79
2021/06/28 03:04:47;;;;;;;;;;;23.40;64.00;;;;;;3174914;28;20051;-81
2021/06/28 03:06:19;;;;;;;7.05;3.20;;;23.40;63.90;;;;;;3173634;28;19979;-81
2021/06/28 03:07:49;;;;;;;4.25;3.28;;;23.40;63.80;;;;;;3174124;28;20048;-80
2021/06/28 03:09:21;;;;;;;4.70;3.67;;;23.40;63.70;;;;;;3174796;28;20040;-81
2021/06/28 03:10:53;;;;;;;8.65;3.72;;;23.40;63.70;;;;;;3172770;28;20048;-82
2021/06/28 03:12:25;;;;;;;5.90;3.77;;;23.40;63.70;;;;;;3174962;28;20051;-82
2021/06/28 03:13:56;;;;;;;5.80;3.75;;;23.40;63.70;;;;;;3175098;28;20457;-82
2021/06/28 03:15:27;;;;;;;7.15;3.75;;;23.40;63.60;;;;;;3174730;28;20053;-79
2021/06/28 03:16:59;;;;;;;4.30;3.70;;;23.40;63.60;;;;;;3175284;28;20066;-80
2021/06/28 03:18:30;;;;;;;3.97;3.13;;;23.40;63.70;;;;;;3175057;28;20314;-81
2021/06/28 03:20:01;;;;;;;4.45;3.60;;;23.40;63.90;;;;;;3174970;28;20044;-81
2021/06/28 03:21:33;;;;;;;5.40;4.20;;;23.40;63.90;;;;;;3174225;28;20070;-81
2021/06/28 03:23:04;;;;;;;3.95;3.45;;;23.40;63.80;;;;;;3172937;28;20093;-81
2021/06/28 03:24:36;;;;;;;7.75;3.50;;;23.40;64.70;;;;;;3168906;28;20069;-81
2021/06/28 03:26:09;;;;;;;6.55;3.83;;;23.40;64.00;;;;;;3159977;28;20060;-81
2021/06/28 03:27:40;;;;;;;5.82;3.22;;;23.30;63.90;;;;;;3160470;28;20049;-80
2021/06/28 03:29:12;;;;;;;4.82;3.65;;;23.40;64.00;;;;;;3161093;28;20188;-80
2021/06/28 03:30:43;;;;;;;4.47;4.05;;;23.40;63.60;;;;;;3160437;28;20048;-80
2021/06/28 03:32:15;;;;;;;4.13;3.30;;;23.40;63.70;;;;;;3159200;28;20048;-79
2021/06/28 03:33:47;;;;;;;3.60;3.30;;;23.40;63.90;;;;;;3160041;28;20052;-78
2021/06/28 03:35:18;;;;;;;4.13;3.60;;;23.30;64.00;;;;;;3160468;28;20059;-80
2021/06/28 03:36:50;;;;;;;4.63;3.20;;;23.30;63.90;;;;;;3159924;28;20059;-80
2021/06/28 03:38:21;;;;;;;4.07;3.63;;;23.30;64.00;;;;;;3161733;28;20048;-80
2021/06/28 03:39:52;;;;;;;5.70;3.80;;;23.40;64.00;;;;;;3173596;28;20050;-80
2021/06/28 03:41:25;;;;;;;4.78;3.70;;;23.30;63.90;;;;;;3173532;28;20055;-81
2021/06/28 03:42:57;;;;;;;;;;;23.30;63.90;;;;;;3171240;28;20059;-79
2021/06/28 03:44:27;;;;;;;21.98;4.13;;;23.40;63.90;;;;;;3165995;28;19927;-79
2021/06/28 03:45:59;;;;;;;9.02;4.20;;;23.40;64.30;;;;;;3167178;28;20040;-79
2021/06/28 03:47:30;;;;;;;9.95;3.65;;;23.40;64.30;;;;;;3167256;28;20426;-79
2021/06/28 03:49:01;;;;;;;11.23;3.85;;;23.40;64.40;;;;;;3167888;28;20047;-78
2021/06/28 03:50:33;;;;;;;6.10;3.67;;;23.40;64.30;;;;;;3167716;28;20059;-79
2021/06/28 03:52:05;;;;;;;8.63;3.83;;;23.40;64.50;;;;;;3167792;28;20060;-80
2021/06/28 03:53:37;;;;;;;8.57;3.57;;;23.40;64.60;;;;;;3167222;28;20056;-81
2021/06/28 03:55:08;;;;;;;11.63;4.00;;;23.40;64.60;;;;;;3165383;28;20048;-79
2021/06/28 03:56:41;;;;;;;14.48;3.90;;;23.40;64.70;;;;;;3164716;28;20137;-79
2021/06/28 03:58:12;;;;;;;;;;;23.40;64.80;;;;;;3164844;28;20067;-78
2021/06/28 03:59:43;;;;;;;9.98;3.88;;;23.40;65.50;;;;;;3165550;28;19935;-78
2021/06/28 04:01:14;;;;;;;8.20;3.90;;;23.40;65.60;;;;;;3165216;28;20048;-79
2021/06/28 04:02:45;;;;;;;8.05;3.80;;;23.40;64.90;;;;;;3166189;28;20043;-79
2021/06/28 04:04:17;;;;;;;10.18;3.70;;;23.50;65.20;;;;;;3168409;28;20431;-80
2021/06/28 04:05:49;;;;;;;6.40;3.22;;;23.50;65.30;;;;;;3169059;28;20044;-79
2021/06/28 04:07:20;;;;;;;7.85;3.33;;;23.50;65.10;;;;;;3169589;28;20047;-79
2021/06/28 04:08:51;;;;;;;7.25;3.70;;;23.50;65.30;;;;;;3169230;28;20044;-79
2021/06/28 04:10:24;;;;;;;12.07;3.55;;;23.50;65.30;;;;;;3169287;28;20048;-79
2021/06/28 04:11:57;;;;;;;9.43;3.50;;;23.50;65.30;;;;;;3168762;28;20036;-79
2021/06/28 04:13:28;;;;;;;;;;;23.50;65.50;;;;;;3169785;28;20055;-79
2021/06/28 04:14:59;;;;;;;8.32;3.63;;;23.40;65.20;;;;;;3168808;28;20010;-79
2021/06/28 04:16:30;;;;;;;8.18;4.10;;;23.50;65.40;;;;;;3168420;28;20060;-80
2021/06/28 04:18:02;;;;;;;6.25;3.67;;;23.50;65.40;;;;;;3168899;28;20048;-81
2021/06/28 04:19:33;;;;;;;6.63;3.58;;;23.40;65.50;;;;;;3170068;28;20051;-79
2021/06/28 04:21:05;;;;;;;7.93;3.55;;;23.40;65.60;;;;;;3165047;28;20129;-78
2021/06/28 04:22:36;;;;;;;6.10;3.60;;;23.50;65.80;;;;;;3165385;28;20047;-80
2021/06/28 04:24:08;;;;;;;8.73;3.63;;;23.40;65.70;;;;;;3170335;28;20056;-79
2021/06/28 04:25:39;;;;;;;6.90;3.88;;;23.50;66.00;;;;;;3168514;28;20055;-80
2021/06/28 04:27:12;;;;;;;9.38;3.70;;;23.50;66.00;;;;;;3166779;28;20063;-79
2021/06/28 04:28:44;;;;;;;;;;;23.50;65.90;;;;;;3165794;28;20422;-78
2021/06/28 04:30:16;;;;;;;9.13;3.92;;;23.50;66.10;;;;;;3165833;28;19927;-79
2021/06/28 04:31:48;;;;;;;6.78;3.92;;;23.50;66.00;;;;;;3164830;28;20072;-79
2021/06/28 04:33:19;;;;;;;18.80;4.45;;;23.50;66.10;;;;;;3164521;28;20059;-80
2021/06/28 04:34:50;;;;;;;13.43;3.53;;;23.50;66.20;;;;;;3164702;28;20059;-79
2021/06/28 04:36:22;;;;;;;8.73;3.45;;;23.50;66.00;;;;;;3166992;28;20044;-80
2021/06/28 04:37:54;;;;;;;5.28;3.65;;;23.50;66.00;;;;;;3161166;28;20040;-77
2021/06/28 04:39:25;;;;;;;6.78;3.45;;;23.50;66.10;;;;;;3160695;28;20051;-79
2021/06/28 04:40:57;;;;;;;5.60;3.60;;;23.40;66.00;;;;;;3160334;28;20083;-78
2021/06/28 04:42:29;;;;;;;5.38;3.38;;;23.40;66.00;;;;;;3160136;28;20055;-78
2021/06/28 04:44:01;;;;;;;7.63;3.40;;;23.40;66.00;;;;;;3152220;28;20097;-78
2021/06/28 04:45:32;;;;;;;7.22;4.10;;;23.40;66.00;;;;;;3161064;28;20437;-79
2021/06/28 04:47:03;;;;;;;6.50;4.20;;;23.40;65.20;;;;;;3160630;28;20047;-78
2021/06/28 04:48:35;;;;;;;5.85;4.50;;;23.30;65.40;;;;;;3160930;28;20040;-77
2021/06/28 04:50:06;;;;;;;7.05;4.35;;;23.30;65.30;;;;;;3161034;28;20040;-78
2021/06/28 04:51:39;;;;;;;8.07;5.35;;;23.20;65.20;;;;;;3161430;28;20044;-79
2021/06/28 04:53:11;;;;;;;5.68;4.35;;;23.20;65.20;;;;;;3158647;28;20055;-78
2021/06/28 04:54:43;;;;;;;6.30;4.43;;;23.20;65.10;;;;;;3161059;28;20452;-78
2021/06/28 04:56:14;;;;;;;11.23;4.57;;;23.20;65.20;;;;;;3160206;28;20713;-78
2021/06/28 04:57:47;;;;;;;25.58;5.35;;;23.20;65.90;;;;;;3159876;28;20724;-79
2021/06/28 04:59:19;;;;;;;;;;;23.20;65.70;;;;;;3161006;28;20391;-81
2021/06/28 05:00:51;;;;;;;12.85;5.15;;;23.20;65.00;;;;;;3157151;28;19920;-80
2021/06/28 05:02:22;;;;;;;9.07;5.03;;;23.20;65.00;;;;;;3159346;28;20071;-79
2021/06/28 05:03:54;;;;;;;15.20;5.70;;;23.20;65.00;;;;;;3159839;28;20040;-79
2021/06/28 05:05:26;;;;;;;9.25;6.22;;;23.10;64.80;;;;;;3159270;28;20498;-78
2021/06/28 05:06:57;;;;;;;8.27;6.00;;;23.00;64.70;;;;;;3159789;28;20059;-79
2021/06/28 05:08:29;;;;;;;13.60;6.78;;;22.90;64.60;;;;;;3159404;28;20075;-78
2021/06/28 05:10:00;;;;;;;10.75;6.90;;;22.80;64.70;;;;;;3159899;28;20095;-77
2021/06/28 05:11:31;;;;;;;10.30;6.68;;;22.80;65.00;;;;;;3160166;28;20044;-77
2021/06/28 05:13:04;;;;;;;7.15;6.10;;;22.80;65.10;;;;;;3158380;28;20044;-77
2021/06/28 05:14:36;;;;;;;9.23;6.10;;;22.80;65.30;;;;;;3148973;28;20048;-78
2021/06/28 05:16:07;;;;;;;9.00;6.28;;;22.80;65.40;;;;;;3150501;28;20064;-78
2021/06/28 05:17:39;;;;;;;13.00;6.43;;;22.90;65.70;;;;;;3156955;28;20048;-78
2021/06/28 05:19:11;;;;;;;14.37;7.30;;;22.80;65.60;;;;;;3163532;28;20052;-79
2021/06/28 05:20:42;;;;;;;11.95;7.50;;;22.80;65.70;;;;;;3158567;28;20418;-78
2021/06/28 05:22:13;;;;;;;15.27;7.43;;;22.70;65.70;;;;;;3160180;28;20071;-79
2021/06/28 05:23:45;;;;;;;14.55;7.50;;;22.70;65.80;;;;;;3159598;28;20036;-77
2021/06/28 05:25:16;;;;;;;11.48;7.20;;;22.70;66.00;;;;;;3157321;28;20080;-80
2021/06/28 05:26:48;;;;;;;12.98;7.53;;;22.70;66.10;;;;;;3161383;28;20080;-78
2021/06/28 05:28:21;;;;;;;14.52;7.78;;;22.70;66.30;;;;;;3161804;28;20071;-79
2021/06/28 05:29:55;;;;;;;;;;;22.70;66.20;;;;;;3160713;28;20083;-79
2021/06/28 05:31:27;;;;;;;14.80;7.18;;;22.70;66.30;;;;;;3162115;28;19931;-80
2021/06/28 05:32:58;;;;;;;10.02;7.75;;;22.70;66.30;;;;;;3162413;28;20048;-78
2021/06/28 05:34:29;;;;;;;13.30;6.80;;;22.70;66.30;;;;;;3162218;28;20051;-78
2021/06/28 05:36:00;;;;;;;10.25;7.30;;;22.70;66.30;;;;;;3160423;28;20048;-78
2021/06/28 05:37:32;;;;;;;11.23;6.90;;;22.70;66.40;;;;;;3162119;28;20493;-78
2021/06/28 05:39:04;;;;;;;9.98;6.68;;;22.60;66.30;;;;;;3161878;28;20059;-78
2021/06/28 05:40:35;;;;;;;8.57;6.65;;;22.70;66.30;;;;;;3162256;28;20090;-79
2021/06/28 05:42:06;;;;;;;9.43;6.30;;;22.70;66.30;;;;;;3162335;28;20111;-78
2021/06/28 05:43:39;;;;;;;11.23;6.47;;;22.70;66.50;;;;;;3162400;28;20047;-78
2021/06/28 05:45:13;;;;;;;;;;;22.60;66.40;;;;;;3162935;28;20513;-78
2021/06/28 05:46:44;;;;;;;9.02;6.57;;;22.60;66.50;;;;;;3156278;28;20301;-78
2021/06/28 05:48:15;;;;;;;7.75;6.35;;;22.60;66.50;;;;;;3149947;28;20049;-78
2021/06/28 05:49:46;;;;;;;9.73;6.32;;;22.60;66.60;;;;;;3149812;28;20051;-78
2021/06/28 05:51:19;;;;;;;9.00;5.93;;;22.60;66.60;;;;;;3149493;28;20063;-79
2021/06/28 05:52:50;;;;;;;8.50;6.00;;;22.60;66.60;;;;;;3149547;28;20070;-78
2021/06/28 05:54:22;;;;;;;6.90;5.60;;;22.60;67.40;;;;;;3149635;28;20056;-79
2021/06/28 05:55:53;;;;;;;7.60;5.30;;;22.60;66.70;;;;;;3149451;28;20486;-78
2021/06/28 05:57:25;;;;;;;5.85;5.30;;;22.60;66.70;;;;;;3149590;28;20104;-78
2021/06/28 05:58:57;;;;;;;7.43;6.00;;;22.60;66.80;;;;;;3149471;28;20075;-78
2021/06/28 06:00:29;;;;;;;7.32;5.50;;;22.60;66.90;;;;;;3149058;28;20121;-78
2021/06/28 06:01:59;;;;;;;6.63;5.43;;;22.60;66.90;;;;;;3149054;28;20080;-78
2021/06/28 06:03:31;;;;;;;5.90;5.30;;;22.60;66.90;;;;;;3149946;28;20041;-78
2021/06/28 06:05:02;;;;;;;7.28;5.60;;;22.60;67.00;;;;;;3148803;28;20143;-78
2021/06/28 06:06:34;;;;;;;7.68;5.43;;;22.60;67.00;;;;;;3148871;28;20044;-78
2021/06/28 06:08:06;;;;;;;8.90;5.75;;;22.60;67.00;;;;;;3149178;28;20482;-78
2021/06/28 06:09:37;;;;;;;5.57;5.03;;;22.60;67.00;;;;;;3148736;28;20533;-78
2021/06/28 06:11:09;;;;;;;6.90;5.40;;;22.60;67.00;;;;;;3149006;28;20052;-78
2021/06/28 06:12:41;;;;;;;5.82;5.22;;;22.60;66.90;;;;;;3148775;28;20045;-78
2021/06/28 06:14:15;;;;;;;6.93;5.35;;;22.60;67.00;;;;;;3148832;28;20083;-78
2021/06/28 06:15:46;;;;;;;5.80;4.93;;;22.60;66.90;;;;;;3148479;28;20120;-78
2021/06/28 06:17:18;;;;;;;6.22;5.53;;;22.60;67.00;;;;;;3148882;28;20494;-79
2021/06/28 06:18:50;;;;;;;7.00;5.18;;;22.60;67.00;;;;;;3148942;28;20415;-78
2021/06/28 06:20:21;;;;;;;6.53;4.97;;;22.60;67.10;;;;;;3149590;28;20044;-78
2021/06/28 06:21:53;;;;;;;10.23;5.65;;;22.60;67.20;;;;;;3148544;28;20048;-78
2021/06/28 06:23:23;;;;;;;5.70;5.05;;;22.60;67.20;;;;;;3148775;28;20052;-78
2021/06/28 06:24:55;;;;;;;6.45;5.57;;;22.60;67.20;;;;;;3148849;28;20414;-78
2021/06/28 06:26:26;;;;;;;5.93;4.78;;;22.60;67.30;;;;;;3148404;28;20075;-77
2021/06/28 06:27:58;;;;;;;5.70;5.10;;;22.60;67.30;;;;;;3148634;28;20053;-80
2021/06/28 06:29:31;;;;;;;7.57;5.60;;;22.60;67.20;;;;;;3148873;28;20083;-78
2021/06/28 06:31:02;;;;;;;;;;;22.60;67.10;;;;;;3149093;28;20072;-78
2021/06/28 06:32:33;;;;;;;5.63;5.13;;;22.60;66.90;;;;;;3148476;28;20394;-78
2021/06/28 06:34:04;;;;;;;6.57;5.03;;;22.60;66.90;;;;;;3148677;28;20063;-79
2021/06/28 06:35:36;;;;;;;5.70;4.82;;;22.60;67.00;;;;;;3148569;28;20056;-78
2021/06/28 06:37:08;;;;;;;7.32;5.30;;;22.60;67.00;;;;;;3154832;28;20056;-79
2021/06/28 06:38:39;;;;;;;5.57;4.97;;;22.60;67.10;;;;;;3160691;28;20052;-78
2021/06/28 06:40:11;;;;;;;4.95;4.53;;;22.60;67.10;;;;;;3160935;28;20052;-79
2021/06/28 06:41:43;;;;;;;6.80;4.93;;;22.60;67.20;;;;;;3161119;28;20103;-80
2021/06/28 06:43:14;;;;;;;5.28;4.78;;;22.60;67.20;;;;;;3160790;28;20086;-78
2021/06/28 06:44:47;;;;;;;5.55;4.97;;;22.60;67.20;;;;;;3161076;28;20079;-78
2021/06/28 06:46:19;;;;;;;;;;;22.60;67.20;;;;;;3161474;28;20075;-78
2021/06/28 06:47:49;;;;;;;5.55;5.05;;;22.60;67.20;;;;;;3160903;28;19962;-78
2021/06/28 06:49:21;;;;;;;5.72;4.68;;;22.60;67.10;;;;;;3160928;28;20040;-78
2021/06/28 06:50:53;;;;;;;6.72;5.20;;;22.60;67.10;;;;;;3160963;28;20101;-78
2021/06/28 06:52:24;;;;;;;7.45;4.82;;;22.70;67.30;;;;;;3160897;28;20078;-79
2021/06/28 06:53:55;;;;;;;5.80;4.20;;;22.60;67.10;;;;;;3160913;28;20052;-78
2021/06/28 06:55:27;;;;;;;6.20;4.60;;;22.70;67.20;;;;;;3160799;28;20044;-79
2021/06/28 06:56:59;;;;;;;5.22;4.55;;;22.60;67.20;;;;;;3160712;28;20055;-78
2021/06/28 06:58:31;;;;;;;5.80;4.93;;;22.60;67.80;;;;;;3161032;28;20047;-78
2021/06/28 07:00:04;;;;;;;6.40;4.43;;;22.60;67.10;;;;;;3160696;28;20055;-78
2021/06/28 07:01:36;;;;;;;5.35;4.70;;;22.70;67.10;;;;;;3160871;28;20072;-80
2021/06/28 07:03:07;;;;;;;4.80;4.27;;;22.70;67.10;;;;;;3160662;28;20044;-78
2021/06/28 07:04:39;;;;;;;5.05;4.57;;;22.70;67.10;;;;;;3161173;28;20490;-78
2021/06/28 07:06:10;;;;;;;4.97;4.43;;;22.70;67.10;;;;;;3160347;28;20090;-79
2021/06/28 07:07:42;;;;;;;5.10;4.60;;;22.70;67.00;;;;;;3160947;28;20082;-78
2021/06/28 07:09:13;;;;;;;7.55;4.40;;;22.70;66.90;;;;;;3160581;28;20076;-79
2021/06/28 07:10:45;;;;;;;4.88;4.47;;;22.70;67.00;;;;;;3160963;28;20414;-78
2021/06/28 07:12:17;;;;;;;4.82;4.13;;;22.70;67.00;;;;;;3160561;28;20074;-79
2021/06/28 07:13:50;;;;;;;4.82;4.43;;;22.70;66.90;;;;;;3160599;28;20071;-78
2021/06/28 07:15:23;;;;;;;;;;;22.70;66.90;;;;;;3161272;28;20043;-78
2021/06/28 07:16:54;;;;;;;4.93;4.47;;;22.70;66.80;;;;;;3160309;28;19959;-78
2021/06/28 07:18:26;;;;;;;5.00;4.50;;;22.70;66.80;;;;;;3160747;28;20079;-79
2021/06/28 07:19:57;;;;;;;4.57;4.18;;;22.70;66.80;;;;;;3160590;28;20079;-79
2021/06/28 07:21:29;;;;;;;5.18;4.43;;;22.70;66.80;;;;;;3160793;28;20068;-78
2021/06/28 07:23:00;;;;;;;4.93;4.43;;;22.70;66.80;;;;;;3160355;28;20076;-79
2021/06/28 07:24:32;;;;;;;6.25;4.13;;;22.70;66.70;;;;;;3160358;28;20076;-78
2021/06/28 07:26:04;;;;;;;4.75;4.03;;;22.70;66.70;;;;;;3160279;28;20529;-78
2021/06/28 07:27:35;;;;;;;5.45;4.40;;;22.70;66.80;;;;;;3160521;28;20079;-78
2021/06/28 07:29:06;;;;;;;5.07;4.38;;;22.70;66.70;;;;;;3160531;28;20055;-78
2021/06/28 07:30:41;;;;;;;4.40;4.05;;;22.70;66.80;;;;;;3160438;28;20080;-79
2021/06/28 07:32:12;;;;;;;5.15;4.18;;;22.70;66.60;;;;;;3160685;28;20048;-78
2021/06/28 07:33:44;;;;;;;5.80;4.20;;;22.70;66.60;;;;;;3160282;28;20047;-77
2021/06/28 07:35:15;;;;;;;4.75;4.10;;;22.70;66.60;;;;;;3160451;28;20087;-78
2021/06/28 07:36:47;;;;;;;4.80;4.40;;;22.80;66.50;;;;;;3160204;28;20063;-78
2021/06/28 07:38:19;;;;;;;4.88;4.40;;;22.80;66.70;;;;;;3160200;28;20048;-78
2021/06/28 07:39:51;;;;;;;4.72;4.32;;;22.80;66.70;;;;;;3160326;28;20076;-80
2021/06/28 07:41:23;;;;;;;4.10;3.80;;;22.70;66.50;;;;;;3160479;28;20055;-78
2021/06/28 07:42:54;;;;;;;4.25;3.85;;;22.70;66.50;;;;;;3160392;28;20051;-78
2021/06/28 07:44:26;;;;;;;5.70;4.00;;;22.70;66.50;;;;;;3160512;28;20075;-78
2021/06/28 07:45:59;;;;;;;5.93;4.20;;;22.70;66.50;;;;;;3160101;28;20524;-79
2021/06/28 07:47:30;;;;;;;;;;;22.70;66.40;;;;;;3160919;28;20487;-79
2021/06/28 07:49:02;;;;;;;4.50;3.95;;;22.80;66.50;;;;;;3159914;28;19927;-77
2021/06/28 07:50:33;;;;;;;4.22;3.92;;;22.70;66.30;;;;;;3160398;28;20071;-78
2021/06/28 07:52:09;;;;;;;4.75;4.10;;;22.80;66.50;;;;;;3160195;28;20083;-77
2021/06/28 07:53:40;;;;;;;4.28;3.88;;;22.70;66.40;;;;;;3153544;28;20252;-78
2021/06/28 07:55:13;;;;;;;5.22;4.05;;;22.80;66.40;;;;;;3158525;28;20418;-79
2021/06/28 07:56:44;;;;;;;5.22;4.18;;;22.80;66.50;;;;;;3158327;28;20528;-78
2021/06/28 07:58:15;;;;;;;3.97;3.67;;;22.80;66.60;;;;;;3157343;28;20051;-78
2021/06/28 07:59:47;;;;;;;4.63;3.75;;;22.80;66.60;;;;;;3155843;28;20115;-79